Aérodrome :
LOGIN :

S'inscrire | Disclaimer

   EN    FR    IT 

 










Légende :    VFR   VFR Marginal   IFR   IFR Intensif   IFR Très Intensif
Visi : 
Plafond : 
>= 8 km
>= 3000ft
5 à 8 km
1000 à 3000 ft
1500m à 5 km
500 à 1000 ft
800 à 1500m
200 à 500 ft
< 800m
< 200 ft
Symboles :   Orages  Brouillard  Fortes neiges  Fortes précipitations  Vent > 20 kt
SIGMETs :   Divers  Orages  Givrage  Turbulence  Onde Orograph.  Cendres Volcan.






- Altitude de l'aérodrome : 32 ft
- Code IATA : LKZ


EGUL - RAF Lakenheath

DERNIER METAR :
  • 131356Z AUTO 19005KT 9999 CLR 08/04 A2945 RMK AO2 DZE04 SLP976 P0000 T00800036 $

METARs EXPIRÉS :
  • 131304Z AUTO 20006KT 9999 SCT016 08/04 A2946 RMK AO2 DZE04 SLP980 $
  • 131256Z AUTO 22005KT 9999 -DZ SCT016 07/04 A2947 RMK AO2 DZE1158DZB54 SLP983 P0000 T00740040 $
  • 131254Z AUTO 23005KT 9999 -DZ SCT016 07/04 A2947 RMK AO2 DZE1158DZB54 SLP983 $
  • 131228Z COR AUTO 23004KT 9999 SCT014 07/04 A2947 RMK AO2 DZE1158 SLP983 $ COR 1232

TAF TAF EGUL
Valide du 13 à 13h jusqu'au 14 à 19h UTC


131300Z 1313/1419 20009KT 9999 FEW015 SCT020 SCT100 QNH2935INS
BECMG 1322/1323 11009KT 9999 SCT010 BKN020 OVC050 620305 QNH2928INS
BECMG 1405/1406 07010G15KT 8000 -RA BKN015 OVC030 620309 QNH2931INS TX08/1313Z TN03/1321Z



MET'MAP, la Météo Aéronautique d'un coup d'oeil ! - Copyright ORBIFLY Décembre 2007 - Disclaimer

ORBIFLY MET'MAP TEAM :

Programmation & Développement : Alexandra Zaïnal
Conception & Développement : Baudouin d'Aumeries
Co-Programmation & Développement : Marc-Olivier Méhu
Soutien technique & logistique : Manuel Goepfert

Contact : metmap@orbifly.com




SOURCES & CREDITS :

   NOAA